createdAt,value
2023-05-02T00:00:51.339Z,5.78
2023-05-02T00:03:18.360Z,5.95
2023-05-02T00:05:45.261Z,5.65
2023-05-02T00:08:12.391Z,5.95
2023-05-02T00:10:39.202Z,6.35
2023-05-02T00:13:05.897Z,5.93
2023-05-02T00:15:32.557Z,6.32
2023-05-02T00:18:00.263Z,6.40
2023-05-02T00:20:26.979Z,6.47
2023-05-02T00:22:55.124Z,6.28
2023-05-02T00:25:21.751Z,6.13
2023-05-02T00:27:50.864Z,6.20
2023-05-02T00:30:18.337Z,6.15
2023-05-02T00:32:45.185Z,6.45
2023-05-02T00:35:11.924Z,6.72
2023-05-02T00:37:39.105Z,6.78
2023-05-02T00:40:07.949Z,6.32
2023-05-02T00:42:36.102Z,7.68
2023-05-02T00:45:06.880Z,5.90
2023-05-02T00:47:34.047Z,6.20
2023-05-02T00:50:01.534Z,6.45
2023-05-02T00:52:29.122Z,6.30
2023-05-02T00:54:56.045Z,6.43
2023-05-02T00:57:23.154Z,6.20
2023-05-02T00:59:50.995Z,6.43
2023-05-02T01:02:37.400Z,6.15
2023-05-02T01:05:21.002Z,6.70
2023-05-02T01:07:50.748Z,6.63
2023-05-02T01:10:52.991Z,6.63
2023-05-02T01:13:23.005Z,6.68
2023-05-02T01:15:51.866Z,6.88
2023-05-02T01:18:22.425Z,6.80
2023-05-02T01:20:57.288Z,7.40
2023-05-02T01:23:41.021Z,7.20
2023-05-02T01:26:26.996Z,7.20
2023-05-02T01:29:04.969Z,7.65
2023-05-02T01:31:35.215Z,9.73
2023-05-02T01:34:03.390Z,8.32
2023-05-02T01:36:32.632Z,8.02
2023-05-02T01:39:01.467Z,8.07
2023-05-02T01:41:31.058Z,8.75
2023-05-02T01:43:59.852Z,8.23
2023-05-02T01:46:31.435Z,8.52
2023-05-02T01:48:59.477Z,8.95
2023-05-02T01:51:33.569Z,8.95
2023-05-02T01:54:04.140Z,9.50
2023-05-02T01:56:33.856Z,8.75
2023-05-02T01:59:02.541Z,8.93
2023-05-02T02:01:31.082Z,9.82
2023-05-02T02:03:59.865Z,11.38
2023-05-02T02:06:27.536Z,12.88
2023-05-02T02:08:54.946Z,14.10
2023-05-02T02:11:27.171Z,14.88
2023-05-02T02:14:01.937Z,14.43
2023-05-02T02:16:32.765Z,15.23
2023-05-02T02:19:06.688Z,16.60
2023-05-02T02:21:35.666Z,15.45
2023-05-02T02:24:05.408Z,14.95
2023-05-02T02:26:32.308Z,15.52
2023-05-02T02:29:01.011Z,14.45
2023-05-02T02:31:35.650Z,14.73
2023-05-02T02:34:03.517Z,13.38
2023-05-02T02:36:36.219Z,13.65
2023-05-02T02:39:18.024Z,14.25
2023-05-02T02:42:22.877Z,13.48
2023-05-02T02:45:05.828Z,13.60
2023-05-02T02:47:42.140Z,13.35
2023-05-02T02:50:19.875Z,13.90
2023-05-02T02:53:16.156Z,14.00
2023-05-02T02:55:58.381Z,13.70
2023-05-02T02:58:30.893Z,13.00
2023-05-02T03:01:01.480Z,13.90
2023-05-02T03:03:29.582Z,13.25
2023-05-02T03:05:57.152Z,13.98
2023-05-02T03:08:24.511Z,13.52
2023-05-02T03:10:51.446Z,13.23
2023-05-02T03:13:18.212Z,12.48
2023-05-02T03:15:50.625Z,12.77
2023-05-02T03:18:18.079Z,13.48
2023-05-02T03:20:45.091Z,13.10
2023-05-02T03:23:11.755Z,13.75
2023-05-02T03:25:38.819Z,15.15
2023-05-02T03:28:05.687Z,14.38
2023-05-02T03:30:32.336Z,16.50
2023-05-02T03:33:00.422Z,17.90
2023-05-02T03:35:27.193Z,19.17
2023-05-02T03:37:53.833Z,20.10
2023-05-02T03:40:21.828Z,20.58
2023-05-02T03:42:48.673Z,21.08
2023-05-02T03:45:15.335Z,19.90
2023-05-02T03:47:42.186Z,19.90
2023-05-02T03:50:09.192Z,20.73
2023-05-02T03:52:35.823Z,20.42
2023-05-02T03:55:02.522Z,22.67
2023-05-02T03:57:32.062Z,21.65
2023-05-02T03:59:58.976Z,25.25
2023-05-02T04:02:25.864Z,23.63
2023-05-02T04:04:52.622Z,24.70
2023-05-02T04:07:19.501Z,24.45
2023-05-02T04:09:46.619Z,24.33
2023-05-02T04:12:16.354Z,26.05
2023-05-02T04:14:43.034Z,27.33
2023-05-02T04:17:09.719Z,25.42
2023-05-02T04:19:36.519Z,25.45
2023-05-02T04:22:03.556Z,27.73
2023-05-02T04:24:30.210Z,27.88
2023-05-02T04:26:56.844Z,26.13
2023-05-02T04:29:23.471Z,26.00
2023-05-02T04:31:51.139Z,26.48
2023-05-02T04:34:17.762Z,28.10
2023-05-02T04:36:47.248Z,27.80
2023-05-02T04:39:14.041Z,27.73
2023-05-02T04:41:40.789Z,27.25
2023-05-02T04:44:07.413Z,28.42
2023-05-02T04:46:34.052Z,26.98
2023-05-02T04:49:00.809Z,29.65
2023-05-02T04:51:29.062Z,27.30
2023-05-02T04:53:55.676Z,28.95
2023-05-02T04:56:22.273Z,27.63
2023-05-02T04:58:48.895Z,28.00
2023-05-02T05:01:15.566Z,26.75
2023-05-02T05:03:42.427Z,26.65
2023-05-02T05:06:09.235Z,27.00
2023-05-02T05:08:36.012Z,26.13
2023-05-02T05:11:03.991Z,28.20
2023-05-02T05:13:30.699Z,26.77
2023-05-02T05:15:57.299Z,28.05
2023-05-02T05:18:23.989Z,25.52
2023-05-02T05:20:50.704Z,27.73
2023-05-02T05:23:17.331Z,25.90
2023-05-02T05:25:45.771Z,26.35
2023-05-02T05:28:12.764Z,25.27
2023-05-02T05:30:39.585Z,26.73
2023-05-02T05:33:06.292Z,25.02
2023-05-02T05:35:33.049Z,26.05
2023-05-02T05:37:59.668Z,27.83
2023-05-02T05:40:26.805Z,26.80
2023-05-02T05:42:53.430Z,27.77
2023-05-02T05:45:20.074Z,25.77
2023-05-02T05:47:46.694Z,28.02
2023-05-02T05:50:13.352Z,27.23
2023-05-02T05:52:40.268Z,27.85
2023-05-02T05:55:07.457Z,28.25
2023-05-02T05:57:34.108Z,26.95
2023-05-02T06:00:01.287Z,26.20
2023-05-02T06:02:28.232Z,26.63
2023-05-02T06:04:54.953Z,25.23
2023-05-02T06:07:21.568Z,26.08
2023-05-02T06:09:48.202Z,27.85
2023-05-02T06:12:16.373Z,27.48
2023-05-02T06:14:43.219Z,26.77
2023-05-02T06:17:09.837Z,27.35
2023-05-02T06:19:36.462Z,27.23
2023-05-02T06:22:03.086Z,27.35
2023-05-02T06:24:29.825Z,28.25
2023-05-02T06:26:56.417Z,28.40
2023-05-02T06:29:23.047Z,27.83
2023-05-02T06:31:51.230Z,28.38
2023-05-02T06:34:18.010Z,28.73
2023-05-02T06:36:44.626Z,28.50
2023-05-02T06:39:11.633Z,28.70
2023-05-02T06:41:38.214Z,27.05
2023-05-02T06:44:05.021Z,27.42
2023-05-02T06:46:32.067Z,27.38
2023-05-02T06:48:58.811Z,26.45
2023-05-02T06:51:25.954Z,28.20
2023-05-02T06:53:52.655Z,25.90
2023-05-02T06:56:19.455Z,26.20
2023-05-02T06:58:46.150Z,24.25
2023-05-02T07:01:13.002Z,25.90
2023-05-02T07:03:39.757Z,26.10
2023-05-02T07:06:06.507Z,26.30
2023-05-02T07:08:33.238Z,26.52
2023-05-02T07:10:59.913Z,27.08
2023-05-02T07:13:26.554Z,25.27
2023-05-02T07:15:53.471Z,25.75
2023-05-02T07:18:21.132Z,23.25
2023-05-02T07:20:47.888Z,23.13
2023-05-02T07:23:14.570Z,21.27
2023-05-02T07:25:41.244Z,20.52
2023-05-02T07:28:08.334Z,20.05
2023-05-02T07:30:35.101Z,19.27
2023-05-02T07:33:01.756Z,17.58
2023-05-02T07:35:28.406Z,19.35
2023-05-02T07:37:55.416Z,16.90
2023-05-02T07:40:22.098Z,16.65
2023-05-02T07:42:50.695Z,15.90
2023-05-02T07:45:17.375Z,15.90
2023-05-02T07:47:44.961Z,15.40
2023-05-02T07:50:11.662Z,14.77
2023-05-02T07:52:38.280Z,12.20
2023-05-02T07:55:05.253Z,12.40
2023-05-02T07:57:32.109Z,13.02
2023-05-02T07:59:59.843Z,13.35
2023-05-02T08:02:27.594Z,13.00
2023-05-02T08:04:54.456Z,14.32
2023-05-02T08:07:21.494Z,14.27
2023-05-02T08:09:48.526Z,14.50
2023-05-02T08:12:15.125Z,15.80
2023-05-02T08:14:41.759Z,15.20
2023-05-02T08:17:08.508Z,13.83
2023-05-02T08:19:35.104Z,14.90
2023-05-02T08:22:01.768Z,16.08
2023-05-02T08:24:28.458Z,16.10
2023-05-02T08:26:55.210Z,14.85
2023-05-02T08:29:21.826Z,16.35
2023-05-02T08:31:48.541Z,16.60
2023-05-02T08:34:15.336Z,15.80
2023-05-02T08:36:42.048Z,16.08
2023-05-02T08:39:09.195Z,15.57
2023-05-02T08:41:35.841Z,14.13
2023-05-02T08:44:03.205Z,13.60
2023-05-02T08:46:32.053Z,12.55
2023-05-02T08:49:00.021Z,15.23
2023-05-02T08:51:28.957Z,13.57
2023-05-02T08:53:57.154Z,13.00
2023-05-02T08:56:25.193Z,12.00
2023-05-02T08:58:51.914Z,12.10
2023-05-02T09:01:21.812Z,13.45
2023-05-02T09:03:48.927Z,12.85
2023-05-02T09:06:17.851Z,11.48
2023-05-02T09:08:48.701Z,11.07
2023-05-02T09:11:16.497Z,10.27
2023-05-02T09:13:45.721Z,10.50
2023-05-02T09:16:17.407Z,9.40
2023-05-02T09:18:46.920Z,10.18
2023-05-02T09:21:22.268Z,9.85
2023-05-02T09:23:51.040Z,9.90
2023-05-02T09:26:23.036Z,9.07
2023-05-02T09:28:54.892Z,8.70
2023-05-02T09:31:54.082Z,10.75
2023-05-02T09:34:20.971Z,7.80
2023-05-02T09:36:54.463Z,9.13
2023-05-02T09:39:25.498Z,8.80
2023-05-02T09:41:52.980Z,8.90
2023-05-02T09:44:22.116Z,9.77
2023-05-02T09:46:51.039Z,9.85
2023-05-02T09:49:21.274Z,9.75
2023-05-02T09:51:48.498Z,9.95
2023-05-02T09:54:37.316Z,10.57
2023-05-02T09:57:04.807Z,9.40
2023-05-02T09:59:31.487Z,8.43
2023-05-02T10:02:00.018Z,9.47
2023-05-02T10:04:27.893Z,8.70
2023-05-02T10:06:55.357Z,8.07
2023-05-02T10:09:22.633Z,8.10
2023-05-02T10:11:53.964Z,8.55
2023-05-02T10:14:22.936Z,9.10
2023-05-02T10:17:14.582Z,8.40
2023-05-02T10:19:44.157Z,7.07
2023-05-02T10:22:12.653Z,8.23
2023-05-02T10:24:41.385Z,7.90
2023-05-02T10:27:08.739Z,7.70
2023-05-02T10:29:36.078Z,8.73
2023-05-02T10:32:04.706Z,7.93
2023-05-02T10:34:33.227Z,6.27
2023-05-02T10:37:01.362Z,7.20
2023-05-02T10:39:28.788Z,7.18
2023-05-02T10:41:58.528Z,6.93
2023-05-02T10:44:40.081Z,6.93
2023-05-02T10:47:26.956Z,6.00
2023-05-02T10:50:00.768Z,5.23
2023-05-02T10:52:34.125Z,5.20
2023-05-02T10:55:21.485Z,5.57
2023-05-02T10:58:00.214Z,5.20
2023-05-02T11:00:29.607Z,5.50
2023-05-02T11:02:57.000Z,5.40
2023-05-02T11:05:25.590Z,6.07
2023-05-02T11:08:19.364Z,5.27
2023-05-02T11:10:47.291Z,5.47
2023-05-02T11:13:14.137Z,4.80
2023-05-02T11:15:40.878Z,5.83
2023-05-02T11:18:09.455Z,5.63
2023-05-02T11:20:39.470Z,4.77
2023-05-02T11:23:15.435Z,4.17
2023-05-02T11:25:47.436Z,4.47
2023-05-02T11:28:43.753Z,5.47
2023-05-02T11:31:30.702Z,4.50
2023-05-02T11:33:57.588Z,4.60
2023-05-02T11:36:34.943Z,4.43
2023-05-02T11:39:03.625Z,4.10
2023-05-02T11:41:40.869Z,4.00
2023-05-02T11:44:07.527Z,4.30
2023-05-02T11:46:37.362Z,5.67
2023-05-02T11:49:06.185Z,4.73
2023-05-02T11:51:35.310Z,5.03
2023-05-02T11:54:02.441Z,4.80
2023-05-02T11:56:29.130Z,5.00
2023-05-02T11:59:00.870Z,4.47
2023-05-02T12:01:28.333Z,4.70
2023-05-02T12:04:04.754Z,5.30
2023-05-02T12:06:31.434Z,4.90
2023-05-02T12:09:17.135Z,5.40
2023-05-02T12:11:43.795Z,5.07
2023-05-02T12:14:11.460Z,5.10
2023-05-02T12:16:38.357Z,5.50
2023-05-02T12:19:05.631Z,5.90
2023-05-02T12:21:33.361Z,5.80
2023-05-02T12:24:02.244Z,5.90
2023-05-02T12:26:33.609Z,6.30
2023-05-02T12:29:02.560Z,6.90
2023-05-02T12:31:31.385Z,8.50
2023-05-02T12:34:00.064Z,6.87
2023-05-02T12:36:30.817Z,6.77
2023-05-02T12:39:02.059Z,7.07
2023-05-02T12:41:37.331Z,6.30
2023-05-02T12:44:05.596Z,6.30
2023-05-02T12:46:32.774Z,5.63
2023-05-02T12:49:10.680Z,6.60
2023-05-02T12:51:39.772Z,6.10
2023-05-02T12:54:07.034Z,6.87
2023-05-02T12:56:41.218Z,6.33
2023-05-02T12:59:08.196Z,6.00
2023-05-02T13:01:35.657Z,5.40
2023-05-02T13:04:02.836Z,5.60
2023-05-02T13:06:29.659Z,5.03
2023-05-02T13:08:56.382Z,5.80
2023-05-02T13:11:23.000Z,5.90
2023-05-02T13:13:49.598Z,5.05
2023-05-02T13:16:16.655Z,5.40
2023-05-02T13:18:45.450Z,5.20
2023-05-02T13:21:13.810Z,5.67
2023-05-02T13:23:41.019Z,5.85
2023-05-02T13:26:07.646Z,5.40
2023-05-02T13:28:35.713Z,4.83
2023-05-02T13:31:02.558Z,4.90
2023-05-02T13:33:29.274Z,4.93
2023-05-02T13:35:55.964Z,4.60
2023-05-02T13:38:22.614Z,4.40
2023-05-02T13:40:50.128Z,4.95
2023-05-02T13:43:16.800Z,4.95
2023-05-02T13:45:43.554Z,5.20
2023-05-02T13:48:10.304Z,4.73
2023-05-02T13:50:38.371Z,5.75
2023-05-02T13:53:05.022Z,6.53
2023-05-02T13:55:31.765Z,6.40
2023-05-02T13:57:58.431Z,6.27
2023-05-02T14:00:25.086Z,5.45
2023-05-02T14:02:52.818Z,6.10
2023-05-02T14:05:19.612Z,6.10
2023-05-02T14:07:46.672Z,6.15
2023-05-02T14:10:13.300Z,6.93
2023-05-02T14:12:40.107Z,7.20
2023-05-02T14:15:07.367Z,7.67
2023-05-02T14:17:34.059Z,7.40
2023-05-02T14:20:00.973Z,7.57
2023-05-02T14:22:27.944Z,7.70
2023-05-02T14:24:54.560Z,8.73
2023-05-02T14:27:21.640Z,7.07
2023-05-02T14:29:48.674Z,7.60
2023-05-02T14:32:15.360Z,6.83
2023-05-02T14:34:42.024Z,7.30
2023-05-02T14:37:09.147Z,6.95
2023-05-02T14:39:36.673Z,6.50
2023-05-02T14:42:04.267Z,6.87
2023-05-02T14:44:31.120Z,6.23
2023-05-02T14:46:57.890Z,6.50
2023-05-02T14:49:25.296Z,6.27
2023-05-02T14:51:52.530Z,6.10
2023-05-02T14:54:20.288Z,6.60
2023-05-02T14:56:48.179Z,6.90
2023-05-02T14:59:14.939Z,6.30
2023-05-02T15:01:41.688Z,5.97
2023-05-02T15:04:08.844Z,5.90
2023-05-02T15:06:36.548Z,7.20
2023-05-02T15:09:03.726Z,6.13
2023-05-02T15:11:30.655Z,6.07
2023-05-02T15:13:59.490Z,6.40
2023-05-02T15:16:29.186Z,6.20
2023-05-02T15:18:56.117Z,5.82
2023-05-02T15:21:23.065Z,5.83
2023-05-02T15:23:49.791Z,5.75
2023-05-02T15:26:16.409Z,6.38
2023-05-02T15:28:43.399Z,6.40
2023-05-02T15:31:10.067Z,5.53
2023-05-02T15:33:38.521Z,6.40
2023-05-02T15:36:05.363Z,6.67
2023-05-02T15:38:33.994Z,6.70
2023-05-02T15:41:00.661Z,6.60
2023-05-02T15:43:27.556Z,6.13
2023-05-02T15:45:56.307Z,6.13
2023-05-02T15:48:24.109Z,6.13
2023-05-02T15:50:52.299Z,6.00
2023-05-02T15:53:20.729Z,5.50
2023-05-02T15:55:47.605Z,5.97
2023-05-02T15:58:14.432Z,5.93
2023-05-02T16:00:41.111Z,4.78
2023-05-02T16:03:07.890Z,4.93
2023-05-02T16:05:35.333Z,5.10
2023-05-02T16:08:02.218Z,5.38
2023-05-02T16:10:28.903Z,5.40
2023-05-02T16:12:55.796Z,4.90
2023-05-02T16:15:22.720Z,4.82
2023-05-02T16:17:50.011Z,5.65
2023-05-02T16:20:17.735Z,5.07
2023-05-02T16:22:48.500Z,5.80
2023-05-02T16:25:16.336Z,4.85
2023-05-02T16:27:43.605Z,4.85
2023-05-02T16:30:10.806Z,5.32
2023-05-02T16:32:37.617Z,5.38
2023-05-02T16:35:07.365Z,5.32
2023-05-02T16:37:34.898Z,5.55
2023-05-02T16:40:02.381Z,5.80
2023-05-02T16:42:29.642Z,5.28
2023-05-02T16:44:57.408Z,5.38
2023-05-02T16:47:24.244Z,5.90
2023-05-02T16:50:09.290Z,5.85
2023-05-02T16:52:38.125Z,5.93
2023-05-02T16:55:05.376Z,5.45
2023-05-02T16:57:32.142Z,5.75
2023-05-02T16:59:59.068Z,6.25
2023-05-02T17:02:25.853Z,6.43
2023-05-02T17:04:52.907Z,6.43
2023-05-02T17:07:19.636Z,5.88
2023-05-02T17:09:46.392Z,5.85
2023-05-02T17:12:14.592Z,5.88
2023-05-02T17:14:42.768Z,5.90
2023-05-02T17:17:10.201Z,6.47
2023-05-02T17:19:37.261Z,6.18
2023-05-02T17:22:05.057Z,6.25
2023-05-02T17:24:32.705Z,5.80
2023-05-02T17:26:59.742Z,5.88
2023-05-02T17:29:26.430Z,6.20
2023-05-02T17:31:53.037Z,5.82
2023-05-02T17:34:25.569Z,5.88
2023-05-02T17:36:52.237Z,6.43
2023-05-02T17:39:18.867Z,5.88
2023-05-02T17:41:45.842Z,5.70
2023-05-02T17:44:12.457Z,6.07
2023-05-02T17:46:39.192Z,5.40
2023-05-02T17:49:06.464Z,6.00
2023-05-02T17:51:33.809Z,6.85
2023-05-02T17:54:00.837Z,6.00
2023-05-02T17:56:28.386Z,5.93
2023-05-02T17:58:55.376Z,6.55
2023-05-02T18:01:22.062Z,5.88
2023-05-02T18:03:49.027Z,5.75
2023-05-02T18:06:17.114Z,5.80
2023-05-02T18:08:44.937Z,6.68
2023-05-02T18:11:18.738Z,6.15
2023-05-02T18:13:45.824Z,7.00
2023-05-02T18:16:14.135Z,6.40
2023-05-02T18:18:41.283Z,5.85
2023-05-02T18:21:09.311Z,6.50
2023-05-02T18:23:35.948Z,6.60
2023-05-02T18:26:03.099Z,6.40
2023-05-02T18:28:29.770Z,6.38
2023-05-02T18:30:56.485Z,6.32
2023-05-02T18:33:23.179Z,5.93
2023-05-02T18:35:49.861Z,5.97
2023-05-02T18:38:17.378Z,6.00
2023-05-02T18:40:44.234Z,6.55
2023-05-02T18:43:10.935Z,6.15
2023-05-02T18:45:37.588Z,5.97
2023-05-02T18:48:04.391Z,6.40
2023-05-02T18:50:31.262Z,6.10
2023-05-02T18:52:57.890Z,6.40
2023-05-02T18:55:25.464Z,6.18
2023-05-02T18:57:52.263Z,7.57
2023-05-02T19:00:20.325Z,6.07
2023-05-02T19:02:47.699Z,7.97
2023-05-02T19:05:15.109Z,6.20
2023-05-02T19:07:42.282Z,6.30
2023-05-02T19:10:10.886Z,6.30
2023-05-02T19:12:37.591Z,5.82
2023-05-02T19:15:05.002Z,6.50
2023-05-02T19:17:31.779Z,6.75
2023-05-02T19:19:58.453Z,6.40
2023-05-02T19:22:27.487Z,6.38
2023-05-02T19:24:54.308Z,6.07
2023-05-02T19:27:21.058Z,6.60
2023-05-02T19:29:47.641Z,6.28
2023-05-02T19:32:14.756Z,6.30
2023-05-02T19:34:41.996Z,6.10
2023-05-02T19:37:08.752Z,6.60
2023-05-02T19:39:35.381Z,6.30
2023-05-02T19:42:03.301Z,6.60
2023-05-02T19:44:30.336Z,6.00
2023-05-02T19:46:56.978Z,5.95
2023-05-02T19:49:23.626Z,6.45
2023-05-02T19:51:50.416Z,7.43
2023-05-02T19:54:17.097Z,6.57
2023-05-02T19:56:43.732Z,6.63
2023-05-02T19:59:10.417Z,6.25
2023-05-02T20:01:37.411Z,7.18
2023-05-02T20:04:04.129Z,6.53
2023-05-02T20:06:32.249Z,6.45
2023-05-02T20:08:59.048Z,6.28
2023-05-02T20:11:26.237Z,6.40
2023-05-02T20:13:54.229Z,6.25
2023-05-02T20:16:21.117Z,6.70
2023-05-02T20:18:47.987Z,5.75
2023-05-02T20:21:14.678Z,5.85
2023-05-02T20:23:43.339Z,5.90
2023-05-02T20:26:10.479Z,5.63
2023-05-02T20:28:37.825Z,6.10
2023-05-02T20:31:04.684Z,6.00
2023-05-02T20:33:43.797Z,5.85
2023-05-02T20:36:12.841Z,5.75
2023-05-02T20:38:42.242Z,6.30
2023-05-02T20:41:12.372Z,6.50
2023-05-02T20:43:40.236Z,5.45
2023-05-02T20:46:11.909Z,5.60
2023-05-02T20:48:38.706Z,6.05
2023-05-02T20:51:05.325Z,6.10
2023-05-02T20:53:31.949Z,5.78
2023-05-02T20:55:58.611Z,6.57
2023-05-02T20:58:25.935Z,5.90
2023-05-02T21:00:52.747Z,5.50
2023-05-02T21:03:19.905Z,5.90
2023-05-02T21:05:55.386Z,6.10
2023-05-02T21:08:22.110Z,5.80
2023-05-02T21:10:48.781Z,5.75
2023-05-02T21:13:15.409Z,5.55
2023-05-02T21:15:42.058Z,6.05
2023-05-02T21:18:08.728Z,6.10
2023-05-02T21:20:36.009Z,6.28
2023-05-02T21:23:02.701Z,6.60
2023-05-02T21:25:29.576Z,5.70
2023-05-02T21:27:56.524Z,6.00
2023-05-02T21:30:24.415Z,6.40
2023-05-02T21:32:51.214Z,6.63
2023-05-02T21:35:17.974Z,6.47
2023-05-02T21:37:44.586Z,6.20
2023-05-02T21:40:11.760Z,6.82
2023-05-02T21:42:38.500Z,7.25
2023-05-02T21:45:06.009Z,6.75
2023-05-02T21:47:32.705Z,6.45
2023-05-02T21:50:00.525Z,7.75
2023-05-02T21:52:27.395Z,7.15
2023-05-02T21:54:54.296Z,7.20
2023-05-02T21:57:21.233Z,7.00
2023-05-02T21:59:48.083Z,7.22
2023-05-02T22:02:14.782Z,6.97
2023-05-02T22:04:41.509Z,7.15
2023-05-02T22:07:08.135Z,7.07
2023-05-02T22:09:34.776Z,7.00
2023-05-02T22:12:01.385Z,7.05
2023-05-02T22:14:37.563Z,6.80
2023-05-02T22:17:11.212Z,7.10
2023-05-02T22:19:38.855Z,6.47
2023-05-02T22:22:05.538Z,7.13
2023-05-02T22:24:32.922Z,7.53
2023-05-02T22:26:59.562Z,7.10
2023-05-02T22:29:26.175Z,6.90
2023-05-02T22:31:52.825Z,7.43
2023-05-02T22:34:19.448Z,7.07
2023-05-02T22:36:46.177Z,7.30
2023-05-02T22:39:15.512Z,7.40
2023-05-02T22:41:43.135Z,7.20
2023-05-02T22:44:10.344Z,6.95
2023-05-02T22:46:38.195Z,7.20
2023-05-02T22:49:10.260Z,7.20
2023-05-02T22:51:41.451Z,6.50
2023-05-02T22:54:08.417Z,7.07
2023-05-02T22:56:35.260Z,7.53
2023-05-02T22:59:01.980Z,7.50
2023-05-02T23:01:28.816Z,7.45
2023-05-02T23:03:55.639Z,6.85
2023-05-02T23:06:22.418Z,7.25
2023-05-02T23:08:49.053Z,7.88
2023-05-02T23:11:15.705Z,7.00
2023-05-02T23:13:42.347Z,7.25
2023-05-02T23:16:08.969Z,7.40
2023-05-02T23:18:35.632Z,7.32
2023-05-02T23:21:04.028Z,8.15
2023-05-02T23:23:30.818Z,7.80
2023-05-02T23:25:57.482Z,7.60
2023-05-02T23:28:24.151Z,6.88
2023-05-02T23:30:51.095Z,6.90
2023-05-02T23:33:17.800Z,7.30
2023-05-02T23:35:44.562Z,7.22
2023-05-02T23:38:11.257Z,6.90
2023-05-02T23:40:37.870Z,7.60
2023-05-02T23:43:05.026Z,7.63
2023-05-02T23:45:31.660Z,8.30
2023-05-02T23:47:58.309Z,8.15
2023-05-02T23:50:25.019Z,8.68
2023-05-02T23:52:51.670Z,7.35
2023-05-02T23:55:18.317Z,9.80
2023-05-02T23:57:44.936Z,8.50
